Time;durP1;ratioP1;P1;durP2;ratioP2;P2;SDS_P1;SDS_P2;PMS_P1;PMS_P2;Temp;Humidity;BMP_temperature;BMP_pressure;BME280_temperature;BME280_humidity;BME280_pressure;Samples;Min_cycle;Max_cycle;Signal;HPM_P1;HPM_P2
2021/03/23 00:01:04;;;;;;;22.08;16.52;;;;;;;6.14;71.86;100908.84;5017966;28;20117;-59
2021/03/23 00:03:41;;;;;;;21.50;16.77;;;;;;;6.14;71.79;100914.00;5035617;28;20049;-59
2021/03/23 00:06:17;;;;;;;20.83;16.02;;;;;;;6.13;71.43;100902.78;5001373;28;20044;-59
2021/03/23 00:08:50;;;;;;;20.85;16.50;;;;;;;6.13;71.52;100897.66;5017436;28;20037;-59
2021/03/23 00:11:34;;;;;;;23.70;18.13;;;;;;;6.12;71.98;100901.03;5017747;28;20048;-59
2021/03/23 00:14:07;;;;;;;20.25;16.92;;;;;;;6.13;71.84;100907.06;5035235;28;20419;-59
2021/03/23 00:16:42;;;;;;;21.67;17.27;;;;;;;6.14;71.57;100908.84;5000929;28;20586;-59
2021/03/23 00:19:16;;;;;;;26.20;17.95;;;;;;;6.12;71.76;100906.19;5001221;28;20045;-59
2021/03/23 00:21:47;;;;;;;22.73;16.35;;;;;;;6.14;72.01;100919.13;5035092;28;20116;-59
2021/03/23 00:24:23;;;;;;;24.15;16.33;;;;;;;6.14;71.85;100916.56;5017898;28;20033;-59
2021/03/23 00:26:52;;;;;;;24.25;19.15;;;;;;;6.12;71.88;100908.75;5017843;28;20400;-59
2021/03/23 00:29:24;;;;;;;19.23;16.65;;;;;;;6.12;71.43;100901.03;5017324;28;20038;-59
2021/03/23 00:31:58;;;;;;;21.85;17.73;;;;;;;6.13;71.77;100909.66;5001085;28;20092;-59
2021/03/23 00:34:31;;;;;;;21.65;17.75;;;;;;;6.12;71.86;100905.31;5001390;28;20147;-59
2021/03/23 00:37:03;;;;;;;21.33;16.83;;;;;;;6.12;71.87;100905.31;5001150;28;20128;-59
2021/03/23 00:39:35;;;;;;;22.23;16.85;;;;;;;6.13;72.36;100902.78;5017452;28;20034;-59
2021/03/23 00:42:14;;;;;;;21.55;16.48;;;;;;;6.13;71.67;100899.34;5000480;28;20033;-59
2021/03/23 00:44:51;;;;;;;25.63;18.70;;;;;;;6.13;71.88;100891.63;5000370;28;20122;-59
2021/03/23 00:47:25;;;;;;;23.15;17.58;;;;;;;6.13;71.68;100892.50;5035232;28;20037;-59
2021/03/23 00:49:59;;;;;;;22.75;18.70;;;;;;;6.12;71.90;100887.28;5000833;28;20045;-59
2021/03/23 00:52:30;;;;;;;25.60;18.25;;;;;;;6.12;71.78;100893.31;5034175;28;20041;-59
2021/03/23 00:55:06;;;;;;;23.33;16.83;;;;;;;6.11;71.75;100898.41;5000753;28;20045;-60
2021/03/23 00:57:34;;;;;;;25.63;17.83;;;;;;;6.11;71.58;100886.41;5000903;28;20045;-59
2021/03/23 01:00:14;;;;;;;20.75;17.33;;;;;;;6.09;71.75;100888.91;5017338;28;20324;-59
2021/03/23 01:02:50;;;;;;;20.80;17.05;;;;;;;6.11;71.82;100898.41;5034297;28;20045;-59
2021/03/23 01:05:27;;;;;;;23.63;16.92;;;;;;;6.11;72.19;100893.25;5016369;28;20041;-59
2021/03/23 01:07:56;;;;;;;23.58;18.10;;;;;;;6.11;71.77;100888.97;5000719;28;20552;-59
2021/03/23 01:10:29;;;;;;;22.52;17.77;;;;;;;6.12;71.60;100893.31;5033842;28;20099;-59
2021/03/23 01:13:04;;;;;;;25.42;20.00;;;;;;;6.12;71.85;100887.28;5016809;28;20521;-59
2021/03/23 01:15:40;;;;;;;22.48;17.52;;;;;;;6.11;71.69;100883.81;5033733;28;20044;-59
2021/03/23 01:18:11;;;;;;;30.02;19.63;;;;;;;6.11;71.91;100877.81;5016261;28;20491;-59
2021/03/23 01:20:49;;;;;;;27.75;19.05;;;;;;;6.09;71.75;100888.91;5016102;28;20473;-59
2021/03/23 01:23:20;;;;;;;27.83;17.70;;;;;;;6.11;72.16;100895.81;5033890;28;20448;-59
2021/03/23 01:25:57;;;;;;;24.08;18.27;;;;;;;6.10;71.46;100889.78;5016384;28;20111;-59
2021/03/23 01:28:28;;;;;;;21.40;16.27;;;;;;;6.11;71.96;100890.69;5033492;28;20038;-59
2021/03/23 01:30:59;;;;;;;23.10;17.60;;;;;;;6.10;72.46;100887.19;5017143;28;20041;-59
2021/03/23 01:33:31;;;;;;;24.33;17.95;;;;;;;6.11;71.56;100888.09;5016353;28;20430;-59
2021/03/23 01:36:05;;;;;;;23.92;18.85;;;;;;;6.11;72.21;100888.09;5034039;28;20046;-59
2021/03/23 01:38:36;;;;;;;23.02;17.30;;;;;;;6.12;72.04;100897.59;4999800;28;20068;-59
2021/03/23 01:41:07;;;;;;;22.90;17.55;;;;;;;6.11;71.93;100888.97;5033665;28;20042;-60
2021/03/23 01:43:42;;;;;;;24.90;17.25;;;;;;;6.11;71.73;100899.25;4999656;28;20045;-59
2021/03/23 01:46:41;;;;;;;27.38;18.77;;;;;;;6.09;71.49;100898.31;4999967;28;20069;-59
2021/03/23 01:49:18;;;;;;;27.23;17.73;;;;;;;6.09;71.80;100899.22;4999676;28;20391;-59
2021/03/23 01:51:50;;;;;;;28.17;18.42;;;;;;;6.09;72.07;100899.22;5000074;28;20041;-59
2021/03/23 01:54:29;;;;;;;23.88;17.63;;;;;;;6.09;71.76;100900.88;4999907;28;20573;-59
2021/03/23 01:57:04;;;;;;;23.83;18.90;;;;;;;6.09;71.88;100893.16;5016277;28;20394;-59
2021/03/23 01:59:42;;;;;;;23.02;18.02;;;;;;;6.09;71.63;100888.91;5015596;28;20095;-59
2021/03/23 02:02:19;;;;;;;28.48;19.38;;;;;;;6.09;71.98;100894.06;5015927;28;20146;-59
2021/03/23 02:04:47;;;;;;;24.10;17.45;;;;;;;6.09;71.99;100886.34;4999782;28;20030;-59
2021/03/23 02:07:19;;;;;;;24.92;19.08;;;;;;;6.10;71.41;100889.78;5033253;28;20041;-59
2021/03/23 02:09:55;;;;;;;27.33;18.98;;;;;;;6.09;71.97;100895.72;4999176;28;20037;-59
2021/03/23 02:12:30;;;;;;;25.00;18.80;;;;;;;6.08;71.49;100882.00;4999066;28;20129;-59
2021/03/23 02:15:01;;;;;;;24.67;19.92;;;;;;;6.08;72.10;100886.25;5016021;28;20037;-59
2021/03/23 02:17:35;;;;;;;24.48;18.88;;;;;;;6.09;71.90;100885.44;5015710;28;20042;-59
2021/03/23 02:20:14;;;;;;;28.38;18.67;;;;;;;6.08;72.23;100884.56;5016089;28;20038;-59
2021/03/23 02:22:49;;;;;;;23.30;18.58;;;;;;;6.09;72.13;100883.75;5019735;28;20037;-60
2021/03/23 02:25:26;;;;;;;25.73;18.63;;;;;;;6.09;71.97;100877.72;5020042;28;20030;-59
2021/03/23 02:28:03;;;;;;;;;;;;;;;6.08;71.82;100874.28;5037955;28;20041;-59
2021/03/23 02:30:46;;;;;;;24.38;18.40;;;;;;;6.07;72.15;100872.50;5019722;28;19913;-59
2021/03/23 02:33:17;;;;;;;29.85;20.05;;;;;;;6.07;71.83;100872.50;5019328;28;20041;-59
2021/03/23 02:35:48;;;;;;;27.33;19.42;;;;;;;6.06;71.96;100869.88;5003193;28;20052;-59
2021/03/23 02:38:24;;;;;;;29.50;19.47;;;;;;;6.06;72.05;100872.44;5020123;28;20036;-59
2021/03/23 02:40:55;;;;;;;27.73;19.88;;;;;;;6.05;71.66;100871.56;5003010;28;20403;-59
2021/03/23 02:43:26;;;;;;;27.95;18.23;;;;;;;6.05;72.08;100873.25;5019205;28;20489;-59
2021/03/23 02:46:00;;;;;;;24.35;18.40;;;;;;;6.05;71.94;100863.81;5018866;28;20113;-59
2021/03/23 02:48:31;;;;;;;;;;;;;;;6.04;71.55;100868.91;5019900;28;20390;-59
2021/03/23 02:51:06;;;;;;;27.50;18.70;;;;;;;6.04;71.29;100874.06;5003355;28;19912;-59
2021/03/23 02:53:42;;;;;;;24.17;17.83;;;;;;;6.04;71.98;100869.78;5002943;28;20128;-59
2021/03/23 02:56:18;;;;;;;27.48;19.58;;;;;;;6.05;72.03;100868.09;5002604;28;20048;-60
2021/03/23 02:58:50;;;;;;;27.60;18.58;;;;;;;6.05;71.40;100865.53;5018897;28;20040;-59
2021/03/23 03:01:26;;;;;;;25.38;18.52;;;;;;;6.04;71.79;100872.34;5036770;28;20528;-59
2021/03/23 03:04:00;;;;;;;29.67;18.55;;;;;;;6.03;71.91;100870.59;5002288;28;20034;-59
2021/03/23 03:06:37;;;;;;;31.95;20.55;;;;;;;6.03;71.74;100872.28;5036212;28;20475;-59
2021/03/23 03:09:11;;;;;;;25.80;19.52;;;;;;;6.04;72.06;100872.34;5002576;28;20136;-59
2021/03/23 03:11:40;;;;;;;32.10;20.38;;;;;;;6.02;72.00;100861.09;5019195;28;20038;-59
2021/03/23 03:14:17;;;;;;;27.60;19.58;;;;;;;6.04;72.27;100877.50;5018752;28;20037;-59
2021/03/23 03:16:46;;;;;;;31.20;19.13;;;;;;;6.04;71.96;100872.34;5036437;28;20045;-59
2021/03/23 03:19:18;;;;;;;30.15;20.13;;;;;;;6.04;72.20;100871.50;5018614;28;20037;-59
2021/03/23 03:21:53;;;;;;;34.45;20.00;;;;;;;6.04;71.80;100874.06;5018779;28;20458;-59
2021/03/23 03:24:26;;;;;;;26.20;17.67;;;;;;;6.03;71.55;100888.59;5036399;28;20030;-59
2021/03/23 03:27:00;;;;;;;30.45;20.23;;;;;;;6.03;71.70;100878.31;5018703;28;20034;-59
2021/03/23 03:29:34;;;;;;;31.00;20.13;;;;;;;6.04;71.78;100885.22;5036204;28;20120;-59
2021/03/23 03:32:09;;;;;;;30.45;19.55;;;;;;;6.04;71.55;100889.50;5002752;28;20041;-59
2021/03/23 03:34:40;;;;;;;30.45;19.60;;;;;;;6.03;71.75;100883.47;5001760;28;20033;-59
2021/03/23 03:37:14;;;;;;;27.33;19.48;;;;;;;6.03;71.82;100891.19;5002496;28;20049;-59
2021/03/23 03:39:49;;;;;;;36.42;20.83;;;;;;;6.05;71.92;100888.69;5036229;28;20083;-59
2021/03/23 03:42:20;;;;;;;;;;;;;;;6.02;72.05;100889.41;5036097;28;20107;-59
2021/03/23 03:44:54;;;;;;;24.98;18.05;;;;;;;6.02;72.01;100894.56;5018309;28;19917;-59
2021/03/23 03:47:27;;;;;;;26.45;18.65;;;;;;;6.01;71.92;100887.66;5018621;28;20092;-59
2021/03/23 03:50:01;;;;;;;26.67;19.98;;;;;;;6.01;72.09;100885.06;5019035;28;20037;-59
2021/03/23 03:52:35;;;;;;;27.00;19.63;;;;;;;6.01;72.33;100887.66;5035776;28;20120;-59
2021/03/23 03:55:13;;;;;;;27.50;18.92;;;;;;;6.01;72.20;100882.50;5018545;28;20107;-60
2021/03/23 03:57:43;;;;;;;29.25;18.23;;;;;;;6.01;71.58;100881.63;5017916;28;20037;-60
2021/03/23 04:00:22;;;;;;;24.52;19.20;;;;;;;6.01;72.26;100874.78;5001540;28;20580;-59
2021/03/23 04:02:57;;;;;;;25.50;18.13;;;;;;;6.00;71.75;100870.44;5001357;28;20080;-59
2021/03/23 04:05:30;;;;;;;25.13;19.08;;;;;;;6.02;71.93;100875.69;5001255;28;20037;-59
2021/03/23 04:08:05;;;;;;;27.08;18.83;;;;;;;6.01;72.00;100864.47;5001267;28;20038;-59
2021/03/23 04:10:38;;;;;;;26.33;19.52;;;;;;;6.01;71.78;100863.63;5035748;28;20029;-59
2021/03/23 04:13:10;;;;;;;30.75;18.60;;;;;;;6.02;72.01;100873.97;5001734;28;20041;-59
2021/03/23 04:15:44;;;;;;;30.67;19.98;;;;;;;6.02;71.54;100865.38;5035232;28;20041;-59
2021/03/23 04:18:18;;;;;;;27.65;19.27;;;;;;;6.02;71.59;100875.69;5001106;28;20037;-59
2021/03/23 04:20:53;;;;;;;27.20;18.83;;;;;;;6.00;71.93;100880.72;5017704;28;20452;-59
2021/03/23 04:23:32;;;;;;;25.40;18.53;;;;;;;6.00;71.80;100880.72;5017843;28;20486;-59
2021/03/23 04:26:03;;;;;;;26.63;19.05;;;;;;;6.00;71.79;100879.88;5017694;28;20045;-59
2021/03/23 04:28:39;;;;;;;28.13;19.90;;;;;;;6.00;71.86;100882.44;5017712;28;20040;-59
2021/03/23 04:31:15;;;;;;;26.83;19.40;;;;;;;5.99;71.77;100881.53;5035107;28;20044;-59
2021/03/23 04:33:46;;;;;;;24.52;18.20;;;;;;;6.00;72.10;100873.00;5017281;28;20482;-59
2021/03/23 04:36:18;;;;;;;27.70;17.88;;;;;;;6.00;71.73;100880.72;5035056;28;20033;-59
2021/03/23 04:38:46;;;;;;;28.23;18.42;;;;;;;6.01;72.09;100873.91;5000853;28;20124;-59
2021/03/23 04:41:18;;;;;;;26.98;17.65;;;;;;;5.99;71.77;100868.66;5016822;28;20063;-59
2021/03/23 04:43:50;;;;;;;24.23;17.77;;;;;;;6.00;71.77;100874.72;5016847;28;20033;-59
2021/03/23 04:46:24;;;;;;;22.27;16.52;;;;;;;6.00;71.99;100869.56;5017220;28;20041;-59
2021/03/23 04:48:56;;;;;;;25.55;17.05;;;;;;;5.99;71.49;100868.66;5017113;28;20034;-59
2021/03/23 04:51:27;;;;;;;25.77;18.92;;;;;;;5.99;71.87;100866.09;5034679;28;20034;-59
2021/03/23 04:54:11;;;;;;;26.50;18.33;;;;;;;5.99;71.63;100875.50;5000301;28;20056;-59
2021/03/23 04:56:44;;;;;;;25.98;18.58;;;;;;;5.98;71.58;100866.91;5000720;28;20060;-59
2021/03/23 04:59:18;;;;;;;30.20;18.50;;;;;;;5.98;71.83;100866.00;5034392;28;20132;-59
2021/03/23 05:01:49;;;;;;;;;;;;;;;5.95;71.66;100869.31;5034610;28;20187;-59
2021/03/23 05:04:22;;;;;;;29.08;17.90;;;;;;;5.93;72.06;100869.22;5001259;28;19917;-59
2021/03/23 05:07:02;;;;;;;27.45;18.10;;;;;;;5.92;71.84;100859.75;5016553;28;20037;-59
2021/03/23 05:09:34;;;;;;;28.38;19.58;;;;;;;5.91;72.27;100860.59;5016738;28;20037;-59
2021/03/23 05:12:07;;;;;;;24.58;17.33;;;;;;;5.91;72.05;100873.44;5017058;28;20037;-60
2021/03/23 05:14:42;;;;;;;24.70;17.52;;;;;;;5.90;72.11;100870.78;5000715;28;20041;-59
2021/03/23 05:17:19;;;;;;;25.55;16.85;;;;;;;5.90;71.71;100868.22;5000747;28;20049;-59
2021/03/23 05:19:53;;;;;;;31.83;17.95;;;;;;;5.90;71.81;100868.22;5016774;28;20068;-59
2021/03/23 05:22:30;;;;;;;24.25;17.95;;;;;;;5.91;71.77;100869.97;5033674;28;20155;-59
2021/03/23 05:25:05;;;;;;;27.98;17.63;;;;;;;5.91;71.51;100868.31;4999757;28;20037;-59
2021/03/23 05:27:33;;;;;;;26.10;17.08;;;;;;;5.90;71.86;100874.25;5033973;28;20042;-59
2021/03/23 05:30:05;;;;;;;25.48;17.42;;;;;;;5.92;71.88;100869.16;5016242;28;20033;-59
2021/03/23 05:32:44;;;;;;;28.98;17.15;;;;;;;5.91;71.70;100876.03;5016352;28;20479;-59
2021/03/23 05:35:16;;;;;;;24.73;17.80;;;;;;;5.91;72.07;100869.97;5033852;28;20068;-59
2021/03/23 05:37:53;;;;;;;27.33;16.90;;;;;;;5.90;71.77;100870.78;5016326;28;20040;-59
2021/03/23 05:40:32;;;;;;;26.20;16.85;;;;;;;5.89;72.14;100879.31;5034026;28;20095;-59
2021/03/23 05:43:26;;;;;;;29.02;16.92;;;;;;;5.88;71.98;100880.13;4999708;28;20402;-59
2021/03/23 05:46:10;;;;;;;24.40;16.38;;;;;;;5.88;72.27;100875.88;5000453;28;20387;-59
2021/03/23 05:48:36;;;;;;;24.33;15.75;;;;;;;5.88;71.99;100878.44;5033757;28;20116;-59
2021/03/23 05:51:27;;;;;;;26.50;16.23;;;;;;;5.89;71.88;100869.00;5015865;28;20060;-59
2021/03/23 05:54:03;;;;;;;25.50;17.30;;;;;;;5.89;71.79;100877.63;5015533;28;20490;-59
2021/03/23 05:56:38;;;;;;;23.75;16.55;;;;;;;5.88;71.77;100880.13;4999668;28;20045;-59
2021/03/23 05:59:16;;;;;;;26.10;17.95;;;;;;;5.88;71.92;100877.53;4999449;28;20111;-59
2021/03/23 06:01:53;;;;;;;24.20;17.17;;;;;;;5.88;72.03;100877.53;5033440;28;20036;-59
2021/03/23 06:04:30;;;;;;;29.20;16.60;;;;;;;5.86;72.04;100879.16;5015525;28;20045;-59
2021/03/23 06:07:10;;;;;;;22.52;17.60;;;;;;;5.87;71.72;100884.38;5016122;28;20065;-59
2021/03/23 06:09:42;;;;;;;24.33;16.42;;;;;;;5.88;72.08;100887.84;5033612;28;20034;-59
2021/03/23 06:12:36;;;;;;;26.13;16.50;;;;;;;5.88;71.69;100887.84;5015836;28;20034;-59
2021/03/23 06:15:26;;;;;;;26.02;17.13;;;;;;;5.85;71.85;100888.56;5033896;28;20041;-59
2021/03/23 06:17:57;;;;;;;24.80;16.35;;;;;;;5.86;71.70;100892.91;5033388;28;20130;-59
2021/03/23 06:20:49;;;;;;;26.85;17.08;;;;;;;5.85;71.98;100890.25;5033287;28;20040;-59
2021/03/23 06:23:50;;;;;;;27.30;16.88;;;;;;;5.84;72.14;100893.66;4998936;28;20379;-59
2021/03/23 06:26:27;;;;;;;25.08;16.63;;;;;;;5.83;71.76;100884.19;4980869;28;20537;-59
2021/03/23 06:29:14;;;;;;;28.70;16.80;;;;;;;5.84;71.67;100888.50;5033475;28;20037;-59
2021/03/23 06:32:17;;;;;;;27.83;15.50;;;;;;;5.83;72.10;100889.31;5015604;28;20072;-60
2021/03/23 06:34:43;;;;;;;25.88;15.90;;;;;;;5.83;71.99;100892.75;5033090;28;20561;-59
2021/03/23 06:37:30;;;;;;;28.00;16.73;;;;;;;5.84;72.22;100899.66;5015556;28;20124;-59
2021/03/23 06:39:56;;;;;;;25.92;16.75;;;;;;;5.85;71.85;100898.88;4999045;28;20498;-59
2021/03/23 06:42:52;;;;;;;19.98;14.20;;;;;;;5.85;72.12;100897.97;4998913;28;20033;-59
2021/03/23 06:45:35;;;;;;;34.20;17.63;;;;;;;5.82;71.69;100906.44;4999484;28;20045;-59
2021/03/23 06:48:22;;;;;;;25.37;15.40;;;;;;;5.83;72.26;100910.78;4999206;28;20033;-59
2021/03/23 06:51:07;;;;;;;22.88;16.08;;;;;;;5.84;71.93;100914.25;5032977;28;20281;-59
2021/03/23 06:53:44;;;;;;;25.08;16.38;;;;;;;5.84;71.45;100903.94;5015565;28;20116;-59
2021/03/23 06:56:28;;;;;;;30.90;17.60;;;;;;;5.84;72.41;100906.53;5015120;28;20547;-59
2021/03/23 06:59:16;;;;;;;22.77;15.52;;;;;;;5.85;72.25;100914.31;4998908;28;20128;-59
2021/03/23 07:01:46;;;;;;;24.63;17.65;;;;;;;5.86;72.17;100913.50;4999268;28;20091;-59
2021/03/23 07:04:40;;;;;;;24.83;17.17;;;;;;;5.86;72.34;100915.16;4999023;28;20482;-59
2021/03/23 07:07:16;;;;;;;26.97;16.23;;;;;;;5.87;72.39;100912.69;5000447;28;20033;-60
2021/03/23 07:09:47;;;;;;;25.90;16.33;;;;;;;5.88;71.86;100921.28;5002821;28;20033;-59
2021/03/23 07:12:13;;;;;;;27.08;16.52;;;;;;;5.83;72.03;100918.50;5002028;28;20132;-59
2021/03/23 07:14:47;;;;;;;28.60;16.95;;;;;;;5.85;71.51;100915.97;5018706;28;20121;-60
2021/03/23 07:17:26;;;;;;;24.58;15.70;;;;;;;5.85;71.61;100916.88;5002480;28;20045;-59
2021/03/23 07:20:04;;;;;;;24.40;16.33;;;;;;;5.84;71.58;100914.25;5002032;28;20076;-59
2021/03/23 07:22:39;;;;;;;26.45;16.30;;;;;;;5.84;72.02;100915.09;5036152;28;20033;-59
2021/03/23 07:25:41;;;;;;;29.80;16.35;;;;;;;5.83;71.68;100913.34;5018918;28;20033;-59
2021/03/23 07:28:36;;;;;;;25.35;16.10;;;;;;;5.83;72.24;100918.50;5020805;28;20037;-60
2021/03/23 07:31:32;;;;;;;27.48;16.77;;;;;;;5.83;71.54;100921.06;5001985;28;20036;-59
2021/03/23 07:34:10;;;;;;;27.63;17.23;;;;;;;5.84;71.88;100917.69;5002293;28;20037;-59
2021/03/23 07:36:47;;;;;;;22.73;16.70;;;;;;;5.86;72.10;100928.03;5018006;28;20091;-60
2021/03/23 07:39:55;;;;;;;24.10;16.75;;;;;;;5.85;71.93;100928.84;5018859;28;20068;-59
2021/03/23 07:42:49;;;;;;;26.08;17.00;;;;;;;5.84;72.14;100930.53;5018137;28;20037;-59
2021/03/23 07:45:35;;;;;;;28.90;15.57;;;;;;;5.83;71.62;100918.50;5036361;28;20185;-59
2021/03/23 07:48:14;;;;;;;24.55;15.93;;;;;;;5.85;71.76;100921.13;5017986;28;20700;-59
2021/03/23 07:50:48;;;;;;;28.98;16.38;;;;;;;5.85;72.06;100926.25;5001468;28;20053;-59
2021/03/23 07:53:28;;;;;;;25.70;15.82;;;;;;;5.85;71.69;100927.16;5018031;28;20045;-59
2021/03/23 07:56:19;;;;;;;26.45;17.13;;;;;;;5.87;71.21;100924.66;5018309;28;20590;-59
2021/03/23 07:59:14;;;;;;;23.63;16.65;;;;;;;5.87;71.90;100929.81;5035597;28;20045;-59
2021/03/23 08:02:16;;;;;;;26.50;16.85;;;;;;;5.87;71.55;100932.38;5017812;28;20034;-59
2021/03/23 08:05:31;;;;;;;25.50;15.73;;;;;;;5.86;72.11;100934.09;5001409;28;20045;-59
2021/03/23 08:08:25;;;;;;;29.85;16.65;;;;;;;5.86;71.51;100930.59;5035263;28;20045;-59
2021/03/23 08:11:05;;;;;;;25.85;16.42;;;;;;;5.86;71.92;100935.75;5035738;28;20073;-59
2021/03/23 08:14:11;;;;;;;25.17;15.10;;;;;;;5.86;71.46;100944.38;5035687;28;20034;-59
2021/03/23 08:16:51;;;;;;;24.83;16.30;;;;;;;5.87;71.99;100945.25;5035791;28;20029;-59
2021/03/23 08:19:42;;;;;;;30.75;17.48;;;;;;;5.86;71.39;100935.75;5000614;28;20033;-59
2021/03/23 08:22:55;;;;;;;27.92;17.45;;;;;;;5.83;72.12;100939.06;5001146;28;20129;-59
2021/03/23 08:25:41;;;;;;;28.35;16.40;;;;;;;5.86;72.12;100935.75;4930581;28;20098;-59
2021/03/23 08:28:37;;;;;;;24.55;15.93;;;;;;;5.85;71.64;100952.00;5000940;28;20079;-59
2021/03/23 08:31:24;;;;;;;;;;;;;;;5.86;72.00;100948.63;5002545;28;20098;-59
2021/03/23 08:34:09;;;;;;;28.75;16.75;;;;;;;5.87;71.52;100955.53;5016610;28;19963;-59
2021/03/23 08:37:21;;;;;;;27.45;16.70;;;;;;;5.86;71.51;100951.19;5017445;28;20037;-59
2021/03/23 08:39:58;;;;;;;28.63;17.43;;;;;;;5.85;72.04;100958.03;5017289;28;20437;-59
2021/03/23 08:42:40;;;;;;;24.88;16.20;;;;;;;5.88;71.41;100957.31;5017575;28;20295;-59
2021/03/23 08:45:25;;;;;;;28.88;17.63;;;;;;;5.90;71.56;100963.41;5000898;28;20064;-59
2021/03/23 08:48:04;;;;;;;30.73;17.67;;;;;;;5.89;71.35;100965.13;5017495;28;20034;-59
2021/03/23 08:50:46;;;;;;;30.75;16.52;;;;;;;5.90;71.70;100966.88;5034554;28;20042;-59
2021/03/23 08:53:33;;;;;;;25.10;16.55;;;;;;;5.91;71.72;100962.59;5000452;28;20441;-59
2021/03/23 08:56:11;;;;;;;29.50;19.45;;;;;;;5.92;71.89;100961.81;5000262;28;20556;-59
2021/03/23 08:58:55;;;;;;;30.60;17.75;;;;;;;5.92;71.73;100962.66;5000865;28;20025;-59
2021/03/23 09:01:28;;;;;;;29.92;18.23;;;;;;;5.93;71.23;100955.84;5034682;28;20033;-59
2021/03/23 09:04:03;;;;;;;23.25;15.73;;;;;;;5.95;71.58;100949.97;5000565;28;20041;-59
2021/03/23 09:06:53;;;;;;;28.13;17.38;;;;;;;5.94;72.02;100960.19;5034675;28;20116;-59
2021/03/23 09:09:44;;;;;;;25.00;16.30;;;;;;;5.97;72.15;100962.03;5016599;28;20034;-59
2021/03/23 09:12:42;;;;;;;27.05;16.38;;;;;;;5.97;71.53;100964.59;5000402;28;20129;-59
2021/03/23 09:15:55;;;;;;;29.33;18.70;;;;;;;5.97;71.56;100964.59;5016491;28;20064;-59
2021/03/23 09:18:33;;;;;;;28.38;16.83;;;;;;;5.98;71.58;100963.78;5016817;28;20041;-59
2021/03/23 09:21:11;;;;;;;33.20;16.73;;;;;;;5.97;71.57;100962.03;5015840;28;20130;-59
2021/03/23 09:23:49;;;;;;;24.25;15.45;;;;;;;5.99;71.89;100955.25;5034322;28;20041;-59
2021/03/23 09:26:56;;;;;;;24.33;16.20;;;;;;;5.99;72.10;100955.25;5016446;28;20036;-59
2021/03/23 09:29:31;;;;;;;;;;;;;;;6.00;71.69;100957.06;4961551;28;20072;-59
2021/03/23 09:32:09;;;;;;;25.40;14.52;;;;;;;5.99;71.75;100968.13;5016309;28;19920;-59
2021/03/23 09:35:22;;;;;;;26.85;16.05;;;;;;;5.99;72.03;100974.19;5016953;28;20175;-59
2021/03/23 09:38:20;;;;;;;23.40;15.07;;;;;;;6.02;71.91;100970.91;4999539;28;20060;-60
2021/03/23 09:41:05;;;;;;;31.15;16.88;;;;;;;6.02;71.80;100971.75;4999447;28;20033;-59
2021/03/23 09:43:42;;;;;;;;;;;;;;;6.01;71.27;100966.56;5000793;28;20041;-59
2021/03/23 09:46:31;;;;;;;29.85;16.83;;;;;;;6.02;71.75;100958.91;4999619;28;19977;-60
2021/03/23 09:49:23;;;;;;;28.90;16.35;;;;;;;6.04;71.68;100962.44;5018064;28;20049;-59
2021/03/23 09:52:12;;;;;;;24.58;15.98;;;;;;;6.04;71.70;100964.13;4999393;28;20040;-59
2021/03/23 09:55:00;;;;;;;25.08;14.40;;;;;;;6.05;71.57;100965.91;5034154;28;20033;-59
2021/03/23 09:57:35;;;;;;;28.83;16.33;;;;;;;6.05;71.52;100964.19;4999828;28;20038;-59
2021/03/23 10:00:27;;;;;;;27.63;14.13;;;;;;;6.06;71.19;100962.53;5015922;28;20065;-59
2021/03/23 10:03:03;;;;;;;24.67;14.75;;;;;;;6.06;71.48;100965.09;5033026;28;20104;-60
2021/03/23 10:05:36;;;;;;;24.63;15.93;;;;;;;6.07;71.71;100956.56;4998834;28;20053;-60
2021/03/23 10:08:19;;;;;;;23.47;14.93;;;;;;;6.07;71.31;100960.00;5033550;28;20096;-59
2021/03/23 10:10:55;;;;;;;25.42;16.25;;;;;;;6.08;71.90;100959.22;5033639;28;20272;-59
2021/03/23 10:13:31;;;;;;;29.98;17.15;;;;;;;6.10;71.75;100961.84;4999273;28;20041;-60
2021/03/23 10:16:07;;;;;;;24.42;15.65;;;;;;;6.11;71.70;100955.03;5033519;28;20037;-59
2021/03/23 10:18:41;;;;;;;23.77;14.55;;;;;;;6.11;71.20;100955.88;5033078;28;20507;-59
2021/03/23 10:21:16;;;;;;;27.70;16.40;;;;;;;6.13;71.71;100958.56;5015611;28;20041;-59
2021/03/23 10:23:55;;;;;;;25.88;15.65;;;;;;;6.14;71.53;100958.63;5015636;28;20407;-60
2021/03/23 10:26:53;;;;;;;23.77;15.32;;;;;;;6.15;71.47;100949.22;4998844;28;20038;-59
2021/03/23 10:29:27;;;;;;;27.30;14.55;;;;;;;6.15;71.74;100955.25;5033356;28;20040;-59
2021/03/23 10:31:55;;;;;;;;;;;;;;;6.15;71.25;100952.66;5015957;28;20060;-61
2021/03/23 10:34:35;;;;;;;29.25;15.30;;;;;;;6.16;71.55;100948.38;5000207;28;19939;-59
2021/03/23 10:37:08;;;;;;;24.27;16.17;;;;;;;6.16;71.88;100949.28;4999448;28;20038;-59
2021/03/23 10:39:42;;;;;;;26.70;15.23;;;;;;;6.18;71.69;100949.34;5033156;28;20060;-60
2021/03/23 10:42:31;;;;;;;23.95;16.02;;;;;;;6.20;71.80;100946.06;5017390;28;20048;-59
2021/03/23 10:45:26;;;;;;;24.05;15.27;;;;;;;6.20;71.63;100943.47;5003242;28;20410;-60
2021/03/23 10:48:26;;;;;;;23.80;14.63;;;;;;;6.21;71.34;100937.53;5002810;28;20392;-60
2021/03/23 10:51:21;;;;;;;25.80;15.98;;;;;;;6.21;71.76;100944.34;5019362;28;20079;-60
2021/03/23 10:54:20;;;;;;;24.60;16.27;;;;;;;6.21;71.74;100937.53;5003369;28;20128;-59
2021/03/23 10:56:56;;;;;;;23.70;16.45;;;;;;;6.22;71.66;100939.28;5002563;28;20558;-59
2021/03/23 10:59:36;;;;;;;26.17;15.95;;;;;;;6.22;71.62;100936.72;5018965;28;20065;-59
2021/03/23 11:02:24;;;;;;;25.05;14.88;;;;;;;6.24;71.21;100936.78;5002952;28;20057;-59
2021/03/23 11:05:15;;;;;;;28.40;15.95;;;;;;;6.24;71.64;100929.06;5003586;28;20457;-59
2021/03/23 11:08:05;;;;;;;22.08;14.18;;;;;;;6.26;71.23;100927.44;5018700;28;20201;-60
2021/03/23 11:10:39;;;;;;;25.17;16.95;;;;;;;6.27;71.35;100925.75;5003047;28;20447;-60
2021/03/23 11:13:18;;;;;;;24.13;15.15;;;;;;;6.29;71.73;100922.44;5019177;28;20029;-59
2021/03/23 11:15:52;;;;;;;25.02;15.95;;;;;;;6.31;71.60;100913.06;5018780;28;20576;-60
2021/03/23 11:18:38;;;;;;;25.27;15.70;;;;;;;6.33;71.55;100921.75;5002819;28;20049;-60
2021/03/23 11:21:14;;;;;;;26.33;14.88;;;;;;;6.34;71.08;100917.50;5036173;28;20049;-60
2021/03/23 11:23:51;;;;;;;27.13;15.98;;;;;;;6.35;71.26;100915.00;5018887;28;20030;-60
2021/03/23 11:26:31;;;;;;;22.48;14.95;;;;;;;6.36;71.23;100916.75;5002090;28;20494;-60
2021/03/23 11:29:07;;;;;;;30.02;15.23;;;;;;;6.38;70.86;100910.00;5036949;28;20044;-60
2021/03/23 11:31:48;;;;;;;27.30;15.60;;;;;;;6.41;71.17;100909.25;5018692;28;20069;-60
2021/03/23 11:34:27;;;;;;;24.45;15.65;;;;;;;6.42;71.43;100898.13;5002317;28;20048;-60
2021/03/23 11:37:01;;;;;;;27.55;15.50;;;;;;;6.45;71.46;100918.88;5018498;28;20119;-60
2021/03/23 11:39:40;;;;;;;25.77;16.48;;;;;;;6.45;71.15;100907.72;5001811;28;20042;-60
2021/03/23 11:42:17;;;;;;;24.65;16.15;;;;;;;6.47;70.77;100908.66;5018524;28;20090;-60
2021/03/23 11:45:02;;;;;;;21.50;16.00;;;;;;;6.46;71.23;100907.78;5035937;28;20041;-59
2021/03/23 11:47:55;;;;;;;23.42;16.08;;;;;;;6.47;70.93;100906.06;5018975;28;20041;-60
2021/03/23 11:50:34;;;;;;;24.92;14.77;;;;;;;6.48;71.01;100900.09;5018494;28;20042;-59
2021/03/23 11:53:16;;;;;;;25.88;16.50;;;;;;;6.47;71.09;100913.78;5001171;28;20044;-59
2021/03/23 11:55:50;;;;;;;24.00;14.95;;;;;;;6.49;71.16;100905.34;5017709;28;20038;-60
2021/03/23 11:58:22;;;;;;;23.20;13.32;;;;;;;6.50;70.83;100908.78;5001928;28;20494;-60
2021/03/23 12:01:05;;;;;;;20.23;13.50;;;;;;;6.51;70.81;100905.41;5001870;28;20044;-60
2021/03/23 12:03:34;;;;;;;20.15;14.60;;;;;;;6.50;71.22;100896.81;5035476;28;20049;-60
2021/03/23 12:06:07;;;;;;;24.67;14.10;;;;;;;6.51;70.97;100901.16;5017756;28;20087;-60
2021/03/23 12:08:47;;;;;;;22.20;14.05;;;;;;;6.52;71.29;100891.72;5035537;28;20037;-60
2021/03/23 12:11:33;;;;;;;24.40;15.43;;;;;;;6.53;71.58;100904.69;5001760;28;20176;-60
2021/03/23 12:14:16;;;;;;;22.17;14.93;;;;;;;6.54;70.67;100902.97;5001548;28;20454;-60